sensor_id;sensor_type;location;lat;lon;timestamp;pressure;altitude;pressure_sealevel;temperature;humidity
74346;BME280;62776;50.518;6.732;2022-10-31T00:01:33;97069.44;;;13.13;100.00
74346;BME280;62776;50.518;6.732;2022-10-31T00:04:20;97050.28;;;13.15;100.00
74346;BME280;62776;50.518;6.732;2022-10-31T00:07:06;97049.38;;;13.18;100.00
74346;BME280;62776;50.518;6.732;2022-10-31T00:09:52;97048.50;;;13.17;100.00
74346;BME280;62776;50.518;6.732;2022-10-31T00:12:38;97046.75;;;13.18;100.00
74346;BME280;62776;50.518;6.732;2022-10-31T00:15:24;97048.50;;;13.17;100.00
74346;BME280;62776;50.518;6.732;2022-10-31T00:18:10;97048.53;;;13.16;100.00
74346;BME280;62776;50.518;6.732;2022-10-31T00:21:01;97051.22;;;13.08;100.00
74346;BME280;62776;50.518;6.732;2022-10-31T00:23:48;97054.72;;;13.07;100.00
74346;BME280;62776;50.518;6.732;2022-10-31T00:26:34;97068.63;;;13.06;100.00
74346;BME280;62776;50.518;6.732;2022-10-31T00:29:20;97072.09;;;13.05;100.00
74346;BME280;62776;50.518;6.732;2022-10-31T00:32:07;97066.00;;;13.06;100.00
74346;BME280;62776;50.518;6.732;2022-10-31T00:34:53;97073.81;;;13.06;100.00
74346;BME280;62776;50.518;6.732;2022-10-31T00:37:39;97059.94;;;13.07;100.00
74346;BME280;62776;50.518;6.732;2022-10-31T00:40:25;97054.72;;;13.07;100.00
74346;BME280;62776;50.518;6.732;2022-10-31T00:43:11;97038.16;;;13.08;100.00
74346;BME280;62776;50.518;6.732;2022-10-31T00:45:57;97034.72;;;13.05;100.00
74346;BME280;62776;50.518;6.732;2022-10-31T00:48:43;97026.03;;;13.02;100.00
74346;BME280;62776;50.518;6.732;2022-10-31T00:51:29;97022.53;;;13.02;100.00
74346;BME280;62776;50.518;6.732;2022-10-31T00:54:15;97032.16;;;13.00;100.00
74346;BME280;62776;50.518;6.732;2022-10-31T00:57:01;97027.06;;;12.91;100.00
74346;BME280;62776;50.518;6.732;2022-10-31T00:59:47;97028.81;;;12.86;100.00
74346;BME280;62776;50.518;6.732;2022-10-31T01:02:33;97021.00;;;12.86;100.00
74346;BME280;62776;50.518;6.732;2022-10-31T01:05:20;97017.56;;;12.84;100.00
74346;BME280;62776;50.518;6.732;2022-10-31T01:08:06;97008.84;;;12.85;100.00
74346;BME280;62776;50.518;6.732;2022-10-31T01:11:20;97027.44;;;12.56;100.00
74346;BME280;62776;50.518;6.732;2022-10-31T01:14:07;97018.50;;;12.80;100.00
74346;BME280;62776;50.518;6.732;2022-10-31T01:16:54;97018.41;;;12.83;100.00
74346;BME280;62776;50.518;6.732;2022-10-31T01:19:40;97019.28;;;12.83;100.00
74346;BME280;62776;50.518;6.732;2022-10-31T01:22:26;97016.75;;;12.79;100.00
74346;BME280;62776;50.518;6.732;2022-10-31T01:25:12;97009.81;;;12.75;100.00
74346;BME280;62776;50.518;6.732;2022-10-31T01:27:58;97012.44;;;12.75;100.00
74346;BME280;62776;50.518;6.732;2022-10-31T01:30:44;97004.53;;;12.81;100.00
74346;BME280;62776;50.518;6.732;2022-10-31T01:33:30;97008.03;;;12.81;100.00
74346;BME280;62776;50.518;6.732;2022-10-31T01:36:17;96994.06;;;12.84;100.00
74346;BME280;62776;50.518;6.732;2022-10-31T01:39:09;96999.31;;;12.81;100.00
74346;BME280;62776;50.518;6.732;2022-10-31T01:41:55;97008.00;;;12.83;100.00
74346;BME280;62776;50.518;6.732;2022-10-31T01:47:43;96993.38;;;12.70;100.00
74346;BME280;62776;50.518;6.732;2022-10-31T01:50:35;96994.19;;;12.75;100.00
74346;BME280;62776;50.518;6.732;2022-10-31T01:53:23;96998.56;;;12.74;100.00
74346;BME280;62776;50.518;6.732;2022-10-31T01:56:10;96988.06;;;12.77;100.00
74346;BME280;62776;50.518;6.732;2022-10-31T01:58:57;96995.91;;;12.76;100.00
74346;BME280;62776;50.518;6.732;2022-10-31T02:01:48;96984.59;;;12.75;100.00
74346;BME280;62776;50.518;6.732;2022-10-31T02:04:37;96994.19;;;12.76;100.00
74346;BME280;62776;50.518;6.732;2022-10-31T02:07:39;96991.59;;;12.73;100.00
74346;BME280;62776;50.518;6.732;2022-10-31T02:10:28;96998.53;;;12.76;100.00
74346;BME280;62776;50.518;6.732;2022-10-31T02:13:14;96992.44;;;12.77;100.00
74346;BME280;62776;50.518;6.732;2022-10-31T02:16:01;96999.34;;;12.78;100.00
74346;BME280;62776;50.518;6.732;2022-10-31T02:18:47;96995.00;;;12.78;100.00
74346;BME280;62776;50.518;6.732;2022-10-31T02:21:38;96992.44;;;12.75;100.00
74346;BME280;62776;50.518;6.732;2022-10-31T02:34:11;97004.63;;;12.72;100.00
74346;BME280;62776;50.518;6.732;2022-10-31T02:40:05;97009.94;;;12.66;100.00
74346;BME280;62776;50.518;6.732;2022-10-31T02:45:56;96988.22;;;12.64;100.00
74346;BME280;62776;50.518;6.732;2022-10-31T02:48:44;96991.31;;;12.21;100.00
74346;BME280;62776;50.518;6.732;2022-10-31T02:51:31;96989.16;;;12.60;100.00
74346;BME280;62776;50.518;6.732;2022-10-31T02:54:23;96983.16;;;12.50;100.00
74346;BME280;62776;50.518;6.732;2022-10-31T02:57:10;96980.53;;;12.55;100.00
74346;BME280;62776;50.518;6.732;2022-10-31T03:00:08;96989.34;;;12.41;100.00
74346;BME280;62776;50.518;6.732;2022-10-31T03:06:09;96988.47;;;12.42;100.00
74346;BME280;62776;50.518;6.732;2022-10-31T03:09:27;96994.53;;;12.41;100.00
74346;BME280;62776;50.518;6.732;2022-10-31T03:12:29;96993.59;;;12.52;100.00
74346;BME280;62776;50.518;6.732;2022-10-31T03:15:27;96990.97;;;12.52;100.00
74346;BME280;62776;50.518;6.732;2022-10-31T03:23:51;96984.75;;;12.65;100.00
74346;BME280;62776;50.518;6.732;2022-10-31T03:26:43;96983.91;;;12.63;100.00
74346;BME280;62776;50.518;6.732;2022-10-31T03:29:34;96988.28;;;12.59;100.00
74346;BME280;62776;50.518;6.732;2022-10-31T03:32:26;96997.88;;;12.56;100.00
74346;BME280;62776;50.518;6.732;2022-10-31T03:35:15;96997.91;;;12.53;100.00
74346;BME280;62776;50.518;6.732;2022-10-31T03:38:04;96990.94;;;12.55;100.00
74346;BME280;62776;50.518;6.732;2022-10-31T03:40:52;96988.34;;;12.53;100.00
74346;BME280;62776;50.518;6.732;2022-10-31T03:43:44;96981.47;;;12.46;100.00
74346;BME280;62776;50.518;6.732;2022-10-31T03:46:32;96984.09;;;12.44;100.00
74346;BME280;62776;50.518;6.732;2022-10-31T03:49:19;96975.44;;;12.42;100.00
74346;BME280;62776;50.518;6.732;2022-10-31T03:55:25;96978.22;;;12.27;100.00
74346;BME280;62776;50.518;6.732;2022-10-31T03:58:21;96982.50;;;12.31;100.00
74346;BME280;62776;50.518;6.732;2022-10-31T04:01:11;96979.00;;;12.35;100.00
74346;BME280;62776;50.518;6.732;2022-10-31T04:04:00;96978.06;;;12.41;100.00
74346;BME280;62776;50.518;6.732;2022-10-31T04:06:47;96983.34;;;12.33;100.00
74346;BME280;62776;50.518;6.732;2022-10-31T04:09:37;96986.00;;;12.30;100.00
74346;BME280;62776;50.518;6.732;2022-10-31T04:12:25;96983.34;;;12.33;100.00
74346;BME280;62776;50.518;6.732;2022-10-31T04:15:13;96982.47;;;12.34;100.00
74346;BME280;62776;50.518;6.732;2022-10-31T04:17:59;96973.81;;;12.32;100.00
74346;BME280;62776;50.518;6.732;2022-10-31T04:20:47;96969.50;;;12.30;100.00
74346;BME280;62776;50.518;6.732;2022-10-31T04:23:36;96967.75;;;12.29;100.00
74346;BME280;62776;50.518;6.732;2022-10-31T04:26:23;96966.91;;;12.25;100.00
74346;BME280;62776;50.518;6.732;2022-10-31T04:29:09;96961.72;;;12.22;100.00
74346;BME280;62776;50.518;6.732;2022-10-31T04:31:55;96960.00;;;12.24;100.00
74346;BME280;62776;50.518;6.732;2022-10-31T04:34:41;96959.06;;;12.28;100.00
74346;BME280;62776;50.518;6.732;2022-10-31T04:37:27;96958.16;;;12.32;100.00
74346;BME280;62776;50.518;6.732;2022-10-31T04:40:13;96955.56;;;12.32;100.00
74346;BME280;62776;50.518;6.732;2022-10-31T04:42:59;96959.88;;;12.33;100.00
74346;BME280;62776;50.518;6.732;2022-10-31T04:45:45;96955.59;;;12.29;100.00
74346;BME280;62776;50.518;6.732;2022-10-31T04:48:32;96950.41;;;12.26;100.00
74346;BME280;62776;50.518;6.732;2022-10-31T04:51:18;96946.97;;;12.24;100.00
74346;BME280;62776;50.518;6.732;2022-10-31T04:54:04;96953.91;;;12.22;100.00
74346;BME280;62776;50.518;6.732;2022-10-31T04:56:50;96947.03;;;12.15;100.00
74346;BME280;62776;50.518;6.732;2022-10-31T04:59:36;96951.38;;;12.15;100.00
74346;BME280;62776;50.518;6.732;2022-10-31T05:02:22;96944.47;;;12.12;100.00
74346;BME280;62776;50.518;6.732;2022-10-31T05:05:08;96954.03;;;12.13;100.00
74346;BME280;62776;50.518;6.732;2022-10-31T05:07:54;96953.13;;;12.14;100.00
74346;BME280;62776;50.518;6.732;2022-10-31T05:10:41;96947.09;;;12.11;100.00
74346;BME280;62776;50.518;6.732;2022-10-31T05:13:27;96946.25;;;12.07;100.00
74346;BME280;62776;50.518;6.732;2022-10-31T05:16:13;96948.06;;;12.02;100.00
74346;BME280;62776;50.518;6.732;2022-10-31T05:18:59;96955.84;;;12.04;100.00
74346;BME280;62776;50.518;6.732;2022-10-31T05:21:45;96948.91;;;12.06;100.00
74346;BME280;62776;50.518;6.732;2022-10-31T05:24:31;96948.03;;;12.05;100.00
74346;BME280;62776;50.518;6.732;2022-10-31T05:27:17;96948.91;;;12.04;100.00
74346;BME280;62776;50.518;6.732;2022-10-31T05:30:04;96948.06;;;12.01;100.00
74346;BME280;62776;50.518;6.732;2022-10-31T05:32:51;96935.91;;;12.01;100.00
74346;BME280;62776;50.518;6.732;2022-10-31T05:35:37;96933.25;;;12.07;100.00
74346;BME280;62776;50.518;6.732;2022-10-31T05:38:23;96934.06;;;12.09;100.00
74346;BME280;62776;50.518;6.732;2022-10-31T05:41:09;96920.22;;;12.07;100.00
74346;BME280;62776;50.518;6.732;2022-10-31T05:43:55;96926.28;;;12.08;100.00
74346;BME280;62776;50.518;6.732;2022-10-31T05:46:41;96932.38;;;12.08;100.00
74346;BME280;62776;50.518;6.732;2022-10-31T05:49:27;96936.72;;;12.08;100.00
74346;BME280;62776;50.518;6.732;2022-10-31T05:52:14;96928.03;;;12.07;100.00
74346;BME280;62776;50.518;6.732;2022-10-31T05:55:00;96928.03;;;12.07;100.00
74346;BME280;62776;50.518;6.732;2022-10-31T05:57:46;96930.63;;;12.07;100.00
74346;BME280;62776;50.518;6.732;2022-10-31T06:00:33;96933.22;;;12.09;100.00
74346;BME280;62776;50.518;6.732;2022-10-31T06:03:20;96933.16;;;12.16;100.00
74346;BME280;62776;50.518;6.732;2022-10-31T06:06:06;96927.94;;;12.16;100.00
74346;BME280;62776;50.518;6.732;2022-10-31T06:08:53;96927.00;;;12.20;100.00
74346;BME280;62776;50.518;6.732;2022-10-31T06:11:39;96921.84;;;12.19;100.00
74346;BME280;62776;50.518;6.732;2022-10-31T06:14:25;96921.81;;;12.17;100.00
74346;BME280;62776;50.518;6.732;2022-10-31T06:17:11;96922.72;;;12.15;100.00
74346;BME280;62776;50.518;6.732;2022-10-31T06:19:57;96911.50;;;12.11;100.00
74346;BME280;62776;50.518;6.732;2022-10-31T06:22:43;96908.91;;;12.07;100.00
74346;BME280;62776;50.518;6.732;2022-10-31T06:25:29;96907.22;;;12.04;100.00
74346;BME280;62776;50.518;6.732;2022-10-31T06:28:15;96902.94;;;12.00;100.00
74346;BME280;62776;50.518;6.732;2022-10-31T06:31:01;96896.00;;;11.96;100.00
74346;BME280;62776;50.518;6.732;2022-10-31T06:33:47;96903.84;;;11.93;100.00
74346;BME280;62776;50.518;6.732;2022-10-31T06:36:33;96902.13;;;11.92;100.00
74346;BME280;62776;50.518;6.732;2022-10-31T06:39:19;96909.09;;;11.92;100.00
74346;BME280;62776;50.518;6.732;2022-10-31T06:42:06;96913.44;;;11.91;100.00
74346;BME280;62776;50.518;6.732;2022-10-31T06:44:52;96910.00;;;11.89;100.00
74346;BME280;62776;50.518;6.732;2022-10-31T06:47:38;96917.78;;;11.91;100.00
74346;BME280;62776;50.518;6.732;2022-10-31T06:50:24;96921.25;;;11.91;100.00
74346;BME280;62776;50.518;6.732;2022-10-31T06:53:10;96918.63;;;11.94;100.00
74346;BME280;62776;50.518;6.732;2022-10-31T06:55:57;96910.81;;;11.94;100.00
74346;BME280;62776;50.518;6.732;2022-10-31T06:58:43;96908.13;;;11.99;100.00
74346;BME280;62776;50.518;6.732;2022-10-31T07:01:29;96911.59;;;11.98;100.00
74346;BME280;62776;50.518;6.732;2022-10-31T07:04:15;96909.88;;;11.98;100.00
74346;BME280;62776;50.518;6.732;2022-10-31T07:07:01;96918.59;;;11.96;100.00
74346;BME280;62776;50.518;6.732;2022-10-31T07:09:47;96918.59;;;11.96;100.00
74346;BME280;62776;50.518;6.732;2022-10-31T07:12:33;96927.22;;;12.02;100.00
74346;BME280;62776;50.518;6.732;2022-10-31T07:15:19;96928.91;;;12.03;100.00
74346;BME280;62776;50.518;6.732;2022-10-31T07:18:08;96935.00;;;12.05;100.00
74346;BME280;62776;50.518;6.732;2022-10-31T07:20:54;96932.34;;;12.11;100.00
74346;BME280;62776;50.518;6.732;2022-10-31T07:23:40;96929.66;;;12.17;100.00
74346;BME280;62776;50.518;6.732;2022-10-31T07:26:26;96933.97;;;12.21;100.00
74346;BME280;62776;50.518;6.732;2022-10-31T07:29:13;96934.81;;;12.25;100.00
74346;BME280;62776;50.518;6.732;2022-10-31T07:31:59;96942.56;;;12.28;100.00
74346;BME280;62776;50.518;6.732;2022-10-31T07:34:46;96947.75;;;12.31;100.00
74346;BME280;62776;50.518;6.732;2022-10-31T07:37:32;96939.84;;;12.37;100.00
74346;BME280;62776;50.518;6.732;2022-10-31T07:40:18;96942.41;;;12.41;100.00
74346;BME280;62776;50.518;6.732;2022-10-31T07:43:05;96942.34;;;12.48;100.00
74346;BME280;62776;50.518;6.732;2022-10-31T07:45:52;96944.91;;;12.52;100.00
74346;BME280;62776;50.518;6.732;2022-10-31T07:48:38;96930.03;;;12.60;100.00
74346;BME280;62776;50.518;6.732;2022-10-31T07:51:25;96939.53;;;12.66;100.00
74346;BME280;62776;50.518;6.732;2022-10-31T07:54:11;96940.31;;;12.72;100.00
74346;BME280;62776;50.518;6.732;2022-10-31T07:56:57;96937.63;;;12.80;100.00
74346;BME280;62776;50.518;6.732;2022-10-31T07:59:43;96938.38;;;12.88;100.00
74346;BME280;62776;50.518;6.732;2022-10-31T08:02:29;96925.22;;;12.95;100.00
74346;BME280;62776;50.518;6.732;2022-10-31T08:05:15;96919.84;;;13.06;100.00
74346;BME280;62776;50.518;6.732;2022-10-31T08:08:02;96920.63;;;13.14;100.00
74346;BME280;62776;50.518;6.732;2022-10-31T08:10:48;96928.34;;;13.22;100.00
74346;BME280;62776;50.518;6.732;2022-10-31T08:13:34;96917.78;;;13.31;100.00
74346;BME280;62776;50.518;6.732;2022-10-31T08:16:20;96920.25;;;13.38;100.00
74346;BME280;62776;50.518;6.732;2022-10-31T08:19:06;96922.75;;;13.47;100.00
74346;BME280;62776;50.518;6.732;2022-10-31T08:21:53;96920.09;;;13.49;100.00
74346;BME280;62776;50.518;6.732;2022-10-31T08:24:40;96915.59;;;13.57;100.00
74346;BME280;62776;50.518;6.732;2022-10-31T08:27:26;96912.94;;;13.62;100.00
74346;BME280;62776;50.518;6.732;2022-10-31T08:30:12;96913.66;;;13.70;100.00
74346;BME280;62776;50.518;6.732;2022-10-31T08:33:08;96916.34;;;13.67;100.00
74346;BME280;62776;50.518;6.732;2022-10-31T08:35:54;96911.78;;;13.78;100.00
74346;BME280;62776;50.518;6.732;2022-10-31T08:38:40;96913.44;;;13.82;100.00
74346;BME280;62776;50.518;6.732;2022-10-31T08:41:27;96908.13;;;13.88;100.00
74346;BME280;62776;50.518;6.732;2022-10-31T08:44:13;96906.38;;;13.90;100.00
74346;BME280;62776;50.518;6.732;2022-10-31T08:46:59;96907.97;;;13.95;100.00
74346;BME280;62776;50.518;6.732;2022-10-31T08:49:45;96905.25;;;14.03;100.00
74346;BME280;62776;50.518;6.732;2022-10-31T08:52:31;96898.13;;;14.11;100.00
74346;BME280;62776;50.518;6.732;2022-10-31T08:55:17;96910.19;;;14.18;100.00
74346;BME280;62776;50.518;6.732;2022-10-31T08:58:05;96903.09;;;14.23;100.00
74346;BME280;62776;50.518;6.732;2022-10-31T09:00:53;96898.63;;;14.30;100.00
74346;BME280;62776;50.518;6.732;2022-10-31T09:03:40;96894.94;;;14.41;100.00
74346;BME280;62776;50.518;6.732;2022-10-31T09:06:26;96888.63;;;14.51;100.00
74346;BME280;62776;50.518;6.732;2022-10-31T09:09:12;96895.31;;;14.64;100.00
74346;BME280;62776;50.518;6.732;2022-10-31T09:11:58;96884.63;;;14.76;100.00
74346;BME280;62776;50.518;6.732;2022-10-31T09:14:44;96881.75;;;14.87;100.00
74346;BME280;62776;50.518;6.732;2022-10-31T09:17:30;96876.34;;;14.96;100.00
74346;BME280;62776;50.518;6.732;2022-10-31T09:20:16;96882.22;;;15.06;100.00
74346;BME280;62776;50.518;6.732;2022-10-31T09:23:09;96890.81;;;15.12;100.00
74346;BME280;62776;50.518;6.732;2022-10-31T09:25:55;96887.06;;;15.22;100.00
74346;BME280;62776;50.518;6.732;2022-10-31T09:28:44;96886.97;;;15.27;100.00
74346;BME280;62776;50.518;6.732;2022-10-31T09:31:30;96878.00;;;15.35;100.00
74346;BME280;62776;50.518;6.732;2022-10-31T09:34:16;96874.50;;;15.38;100.00
74346;BME280;62776;50.518;6.732;2022-10-31T09:37:02;96872.63;;;15.43;100.00
74346;BME280;62776;50.518;6.732;2022-10-31T09:39:48;96869.03;;;15.47;100.00
74346;BME280;62776;50.518;6.732;2022-10-31T09:42:47;96863.78;;;15.47;100.00
74346;BME280;62776;50.518;6.732;2022-10-31T09:45:53;96860.28;;;15.48;99.83
74346;BME280;62776;50.518;6.732;2022-10-31T09:48:56;96859.13;;;15.60;99.69
74346;BME280;62776;50.518;6.732;2022-10-31T09:51:58;96850.19;;;15.68;98.43
74346;BME280;62776;50.518;6.732;2022-10-31T09:55:02;96856.16;;;15.73;97.04
74346;BME280;62776;50.518;6.732;2022-10-31T09:57:51;96845.41;;;15.82;98.59
74346;BME280;62776;50.518;6.732;2022-10-31T10:00:37;96838.25;;;15.89;98.01
74346;BME280;62776;50.518;6.732;2022-10-31T10:03:32;96835.69;;;15.87;95.96
74346;BME280;62776;50.518;6.732;2022-10-31T10:06:24;96824.06;;;15.98;95.66
74346;BME280;62776;50.518;6.732;2022-10-31T10:09:11;96826.31;;;16.10;94.48
74346;BME280;62776;50.518;6.732;2022-10-31T10:12:16;96826.44;;;16.07;94.42
74346;BME280;62776;50.518;6.732;2022-10-31T10:15:16;96818.19;;;16.20;94.21
74346;BME280;62776;50.518;6.732;2022-10-31T10:21:32;96821.69;;;16.19;91.72
74346;BME280;62776;50.518;6.732;2022-10-31T10:24:49;96816.31;;;16.24;92.02
74346;BME280;62776;50.518;6.732;2022-10-31T10:28:03;96819.78;;;16.26;93.15
74346;BME280;62776;50.518;6.732;2022-10-31T10:31:03;96813.28;;;16.37;93.58
74346;BME280;62776;50.518;6.732;2022-10-31T10:37:15;96816.38;;;16.51;92.49
74346;BME280;62776;50.518;6.732;2022-10-31T10:43:21;96811.06;;;16.55;92.40
74346;BME280;62776;50.518;6.732;2022-10-31T10:46:16;96816.53;;;16.76;93.09
74346;BME280;62776;50.518;6.732;2022-10-31T10:49:51;96803.38;;;16.78;90.49
74346;BME280;62776;50.518;6.732;2022-10-31T10:55:58;96800.88;;;17.01;89.76
74346;BME280;62776;50.518;6.732;2022-10-31T10:58:46;96790.91;;;17.12;86.97
74346;BME280;62776;50.518;6.732;2022-10-31T11:01:33;96800.41;;;17.16;85.29
74346;BME280;62776;50.518;6.732;2022-10-31T11:04:34;96787.50;;;17.08;85.73
74346;BME280;62776;50.518;6.732;2022-10-31T11:07:21;96785.00;;;17.32;87.34
74346;BME280;62776;50.518;6.732;2022-10-31T11:10:13;96783.13;;;17.35;88.54
74346;BME280;62776;50.518;6.732;2022-10-31T11:13:18;96779.56;;;17.36;87.38
74346;BME280;62776;50.518;6.732;2022-10-31T11:21:54;96766.94;;;17.74;86.24
74346;BME280;62776;50.518;6.732;2022-10-31T11:24:51;96759.00;;;17.75;85.53
74346;BME280;62776;50.518;6.732;2022-10-31T11:27:37;96754.56;;;17.77;83.69
74346;BME280;62776;50.518;6.732;2022-10-31T11:30:23;96748.25;;;17.81;84.78
74346;BME280;62776;50.518;6.732;2022-10-31T11:33:22;96749.34;;;17.76;84.35
74346;BME280;62776;50.518;6.732;2022-10-31T11:36:25;96736.25;;;17.74;85.42
74346;BME280;62776;50.518;6.732;2022-10-31T11:39:22;96729.69;;;17.86;84.67
74346;BME280;62776;50.518;6.732;2022-10-31T11:42:10;96730.22;;;17.95;82.85
74346;BME280;62776;50.518;6.732;2022-10-31T11:44:56;96721.56;;;17.92;81.39
74346;BME280;62776;50.518;6.732;2022-10-31T11:47:49;96717.97;;;17.94;82.00
74346;BME280;62776;50.518;6.732;2022-10-31T11:50:36;96709.50;;;17.63;84.04
74346;BME280;62776;50.518;6.732;2022-10-31T11:53:29;96704.72;;;17.97;83.27
74346;BME280;62776;50.518;6.732;2022-10-31T11:56:17;96700.13;;;18.02;79.60
74346;BME280;62776;50.518;6.732;2022-10-31T11:59:23;96698.53;;;17.98;79.38
74346;BME280;62776;50.518;6.732;2022-10-31T12:02:19;96696.50;;;18.06;79.82
74346;BME280;62776;50.518;6.732;2022-10-31T12:05:18;96692.94;;;18.07;77.25
74346;BME280;62776;50.518;6.732;2022-10-31T12:08:09;96694.47;;;18.13;79.23
74346;BME280;62776;50.518;6.732;2022-10-31T12:25:55;96642.16;;;18.05;76.61
74346;BME280;62776;50.518;6.732;2022-10-31T12:29:02;96636.16;;;18.02;76.66
74346;BME280;62776;50.518;6.732;2022-10-31T12:35:22;96622.16;;;18.01;77.03
74346;BME280;62776;50.518;6.732;2022-10-31T12:41:51;96621.47;;;17.96;75.23
74346;BME280;62776;50.518;6.732;2022-10-31T12:57:07;96594.69;;;18.08;78.25
74346;BME280;62776;50.518;6.732;2022-10-31T13:00:17;96592.84;;;18.10;75.36
74346;BME280;62776;50.518;6.732;2022-10-31T13:06:13;96590.47;;;18.26;73.52
74346;BME280;62776;50.518;6.732;2022-10-31T13:09:08;96581.47;;;18.32;74.72
74346;BME280;62776;50.518;6.732;2022-10-31T13:12:01;96582.28;;;18.34;73.32
74346;BME280;62776;50.518;6.732;2022-10-31T13:14:59;96563.59;;;18.40;74.26
74346;BME280;62776;50.518;6.732;2022-10-31T13:17:54;96563.38;;;18.46;73.58
74346;BME280;62776;50.518;6.732;2022-10-31T13:20:44;96555.09;;;18.55;74.41
74346;BME280;62776;50.518;6.732;2022-10-31T13:23:37;96541.88;;;18.56;73.03
74346;BME280;62776;50.518;6.732;2022-10-31T13:26:32;96553.63;;;18.26;73.01
74346;BME280;62776;50.518;6.732;2022-10-31T13:32:07;96540.38;;;18.51;73.16
74346;BME280;62776;50.518;6.732;2022-10-31T13:34:56;96540.41;;;18.49;72.04
74346;BME280;62776;50.518;6.732;2022-10-31T13:41:06;96521.25;;;18.46;74.07
74346;BME280;62776;50.518;6.732;2022-10-31T13:46:57;96506.94;;;18.53;74.06
74346;BME280;62776;50.518;6.732;2022-10-31T13:49:43;96496.06;;;18.60;73.91
74346;BME280;62776;50.518;6.732;2022-10-31T13:52:30;96495.28;;;18.58;71.58
74346;BME280;62776;50.518;6.732;2022-10-31T13:55:35;96495.75;;;18.48;73.36
74346;BME280;62776;50.518;6.732;2022-10-31T13:58:27;96493.63;;;18.56;72.07
74346;BME280;62776;50.518;6.732;2022-10-31T14:01:19;96489.28;;;18.55;72.39
74346;BME280;62776;50.518;6.732;2022-10-31T14:04:14;96481.91;;;18.63;71.97
74346;BME280;62776;50.518;6.732;2022-10-31T14:07:13;96479.41;;;18.60;72.08
74346;BME280;62776;50.518;6.732;2022-10-31T14:10:03;96470.22;;;18.70;71.05
74346;BME280;62776;50.518;6.732;2022-10-31T14:12:51;96477.13;;;18.72;71.48
74346;BME280;62776;50.518;6.732;2022-10-31T14:15:38;96479.09;;;18.67;70.14
74346;BME280;62776;50.518;6.732;2022-10-31T14:18:37;96470.69;;;18.59;70.89
74346;BME280;62776;50.518;6.732;2022-10-31T14:24:32;96464.75;;;18.33;71.05
74346;BME280;62776;50.518;6.732;2022-10-31T14:30:16;96474.13;;;18.40;71.77
74346;BME280;62776;50.518;6.732;2022-10-31T14:33:19;96462.44;;;18.25;72.57
74346;BME280;62776;50.518;6.732;2022-10-31T14:36:17;96457.00;;;18.29;72.12
74346;BME280;62776;50.518;6.732;2022-10-31T14:39:50;96459.50;;;18.12;72.96
74346;BME280;62776;50.518;6.732;2022-10-31T14:45:59;96439.69;;;18.24;71.99
74346;BME280;62776;50.518;6.732;2022-10-31T14:51:46;96453.56;;;18.27;72.36
74346;BME280;62776;50.518;6.732;2022-10-31T14:54:35;96445.75;;;18.26;73.78
74346;BME280;62776;50.518;6.732;2022-10-31T14:57:33;96443.63;;;18.14;73.50
74346;BME280;62776;50.518;6.732;2022-10-31T15:00:22;96441.72;;;18.17;73.55
74346;BME280;62776;50.518;6.732;2022-10-31T15:03:17;96441.13;;;18.11;73.33
74346;BME280;62776;50.518;6.732;2022-10-31T15:06:13;96433.56;;;18.03;73.06
74346;BME280;62776;50.518;6.732;2022-10-31T15:09:00;96423.69;;;18.08;72.92
74346;BME280;62776;50.518;6.732;2022-10-31T15:11:46;96424.66;;;18.48;71.96
74346;BME280;62776;50.518;6.732;2022-10-31T15:14:32;96424.47;;;18.52;70.36
74346;BME280;62776;50.518;6.732;2022-10-31T15:17:19;96426.69;;;18.21;72.47
74346;BME280;62776;50.518;6.732;2022-10-31T15:20:06;96420.53;;;18.00;72.96
74346;BME280;62776;50.518;6.732;2022-10-31T15:22:57;96426.56;;;17.82;73.06
74346;BME280;62776;50.518;6.732;2022-10-31T15:25:44;96420.88;;;17.71;74.03
74346;BME280;62776;50.518;6.732;2022-10-31T15:28:30;96417.81;;;17.60;74.38
74346;BME280;62776;50.518;6.732;2022-10-31T15:31:17;96405.06;;;17.49;74.99
74346;BME280;62776;50.518;6.732;2022-10-31T15:34:15;96396.75;;;17.38;75.83
74346;BME280;62776;50.518;6.732;2022-10-31T15:37:02;96413.75;;;17.30;75.68
74346;BME280;62776;50.518;6.732;2022-10-31T15:39:49;96407.09;;;17.20;76.69
74346;BME280;62776;50.518;6.732;2022-10-31T15:42:40;96405.16;;;17.03;76.84
74346;BME280;62776;50.518;6.732;2022-10-31T15:45:28;96409.66;;;16.99;77.67
74346;BME280;62776;50.518;6.732;2022-10-31T15:48:23;96406.56;;;16.88;78.24
74346;BME280;62776;50.518;6.732;2022-10-31T15:51:10;96404.97;;;16.84;78.84
74346;BME280;62776;50.518;6.732;2022-10-31T15:53:56;96403.50;;;16.77;79.32
74346;BME280;62776;50.518;6.732;2022-10-31T15:56:44;96403.81;;;16.68;80.05
74346;BME280;62776;50.518;6.732;2022-10-31T15:59:30;96399.84;;;16.58;80.20
74346;BME280;62776;50.518;6.732;2022-10-31T16:02:25;96399.44;;;16.44;80.47
74346;BME280;62776;50.518;6.732;2022-10-31T16:05:19;96395.44;;;16.34;81.37
74346;BME280;62776;50.518;6.732;2022-10-31T16:08:21;96390.22;;;16.32;81.85
74346;BME280;62776;50.518;6.732;2022-10-31T16:14:15;96390.03;;;16.14;82.96
74346;BME280;62776;50.518;6.732;2022-10-31T16:17:02;96388.53;;;16.07;83.63
74346;BME280;62776;50.518;6.732;2022-10-31T16:19:55;96387.22;;;15.93;83.98
74346;BME280;62776;50.518;6.732;2022-10-31T16:22:48;96384.81;;;15.87;83.93
74346;BME280;62776;50.518;6.732;2022-10-31T16:25:37;96376.22;;;15.82;84.35
74346;BME280;62776;50.518;6.732;2022-10-31T16:28:26;96382.41;;;15.81;84.58
74346;BME280;62776;50.518;6.732;2022-10-31T16:31:15;96380.13;;;15.71;85.15
74346;BME280;62776;50.518;6.732;2022-10-31T16:34:17;96380.59;;;15.57;84.99
74346;BME280;62776;50.518;6.732;2022-10-31T16:37:05;96389.06;;;15.65;85.24
74346;BME280;62776;50.518;6.732;2022-10-31T16:39:51;96383.06;;;15.62;85.04
74346;BME280;62776;50.518;6.732;2022-10-31T16:42:37;96384.00;;;15.59;85.22